sensor_id;sensor_type;location;lat;lon;timestamp;temperature;humidity
50548;DHT22;38013;48.810;8.818;2023-02-22T00:01:42;6.40;62.90
50548;DHT22;38013;48.810;8.818;2023-02-22T00:04:36;6.40;63.00
50548;DHT22;38013;48.810;8.818;2023-02-22T00:07:05;6.30;62.90
50548;DHT22;38013;48.810;8.818;2023-02-22T00:09:32;6.30;62.90
50548;DHT22;38013;48.810;8.818;2023-02-22T00:11:59;6.30;63.10
50548;DHT22;38013;48.810;8.818;2023-02-22T00:14:26;6.20;63.00
50548;DHT22;38013;48.810;8.818;2023-02-22T00:16:54;6.30;63.10
50548;DHT22;38013;48.810;8.818;2023-02-22T00:19:25;6.20;63.00
50548;DHT22;38013;48.810;8.818;2023-02-22T00:21:53;6.20;63.00
50548;DHT22;38013;48.810;8.818;2023-02-22T00:24:20;6.10;63.00
50548;DHT22;38013;48.810;8.818;2023-02-22T00:26:52;6.10;63.10
50548;DHT22;38013;48.810;8.818;2023-02-22T00:29:23;6.10;63.20
50548;DHT22;38013;48.810;8.818;2023-02-22T00:31:50;6.00;63.10
50548;DHT22;38013;48.810;8.818;2023-02-22T00:34:17;6.00;63.10
50548;DHT22;38013;48.810;8.818;2023-02-22T00:36:48;5.90;63.20
50548;DHT22;38013;48.810;8.818;2023-02-22T00:39:16;5.90;63.30
50548;DHT22;38013;48.810;8.818;2023-02-22T00:41:43;5.80;63.40
50548;DHT22;38013;48.810;8.818;2023-02-22T00:44:10;5.70;63.50
50548;DHT22;38013;48.810;8.818;2023-02-22T00:46:38;5.70;63.80
50548;DHT22;38013;48.810;8.818;2023-02-22T00:49:05;5.60;64.00
50548;DHT22;38013;48.810;8.818;2023-02-22T00:51:32;5.60;64.30
50548;DHT22;38013;48.810;8.818;2023-02-22T00:54:00;5.60;64.40
50548;DHT22;38013;48.810;8.818;2023-02-22T00:56:27;5.60;64.50
50548;DHT22;38013;48.810;8.818;2023-02-22T00:58:54;5.60;64.60
50548;DHT22;38013;48.810;8.818;2023-02-22T01:01:21;5.60;64.80
50548;DHT22;38013;48.810;8.818;2023-02-22T01:03:49;5.60;64.90
50548;DHT22;38013;48.810;8.818;2023-02-22T01:06:16;5.50;64.90
50548;DHT22;38013;48.810;8.818;2023-02-22T01:08:44;5.50;65.20
50548;DHT22;38013;48.810;8.818;2023-02-22T01:11:13;5.50;65.50
50548;DHT22;38013;48.810;8.818;2023-02-22T01:13:41;5.50;65.50
50548;DHT22;38013;48.810;8.818;2023-02-22T01:16:10;5.60;66.60
50548;DHT22;38013;48.810;8.818;2023-02-22T01:18:37;5.60;64.80
50548;DHT22;38013;48.810;8.818;2023-02-22T01:21:05;5.60;64.80
50548;DHT22;38013;48.810;8.818;2023-02-22T01:23:34;5.60;64.80
50548;DHT22;38013;48.810;8.818;2023-02-22T01:26:01;5.60;64.80
50548;DHT22;38013;48.810;8.818;2023-02-22T01:28:31;5.50;64.90
50548;DHT22;38013;48.810;8.818;2023-02-22T01:31:00;5.50;65.00
50548;DHT22;38013;48.810;8.818;2023-02-22T01:33:28;5.50;65.10
50548;DHT22;38013;48.810;8.818;2023-02-22T01:35:55;5.50;65.20
50548;DHT22;38013;48.810;8.818;2023-02-22T01:38:22;5.50;65.30
50548;DHT22;38013;48.810;8.818;2023-02-22T01:40:50;5.60;65.30
50548;DHT22;38013;48.810;8.818;2023-02-22T01:43:29;5.50;65.40
50548;DHT22;38013;48.810;8.818;2023-02-22T01:46:01;5.50;66.30
50548;DHT22;38013;48.810;8.818;2023-02-22T01:48:38;5.60;66.40
50548;DHT22;38013;48.810;8.818;2023-02-22T01:51:26;5.60;64.80
50548;DHT22;38013;48.810;8.818;2023-02-22T01:59:52;5.50;65.80
50548;DHT22;38013;48.810;8.818;2023-02-22T02:02:24;5.40;65.60
50548;DHT22;38013;48.810;8.818;2023-02-22T02:04:53;5.40;65.70
50548;DHT22;38013;48.810;8.818;2023-02-22T02:07:22;5.40;65.90
50548;DHT22;38013;48.810;8.818;2023-02-22T02:12:26;5.40;66.80
50548;DHT22;38013;48.810;8.818;2023-02-22T02:15:28;5.40;65.40
50548;DHT22;38013;48.810;8.818;2023-02-22T02:18:00;5.40;66.90
50548;DHT22;38013;48.810;8.818;2023-02-22T02:23:37;5.30;66.10
50548;DHT22;38013;48.810;8.818;2023-02-22T02:29:45;5.40;65.90
50548;DHT22;38013;48.810;8.818;2023-02-22T02:35:21;5.30;66.10
50548;DHT22;38013;48.810;8.818;2023-02-22T02:41:15;5.30;66.70
50548;DHT22;38013;48.810;8.818;2023-02-22T02:44:11;5.30;67.30
50548;DHT22;38013;48.810;8.818;2023-02-22T02:46:54;5.30;67.10
50548;DHT22;38013;48.810;8.818;2023-02-22T02:49:45;5.30;67.20
50548;DHT22;38013;48.810;8.818;2023-02-22T02:52:17;5.30;66.60
50548;DHT22;38013;48.810;8.818;2023-02-22T02:54:47;5.30;66.40
50548;DHT22;38013;48.810;8.818;2023-02-22T02:57:14;5.30;66.50
50548;DHT22;38013;48.810;8.818;2023-02-22T02:59:41;5.30;66.60
50548;DHT22;38013;48.810;8.818;2023-02-22T03:05:35;5.40;67.90
50548;DHT22;38013;48.810;8.818;2023-02-22T03:14:00;5.30;67.50
50548;DHT22;38013;48.810;8.818;2023-02-22T03:17:16;5.30;67.60
50548;DHT22;38013;48.810;8.818;2023-02-22T03:19:58;5.30;68.20
50548;DHT22;38013;48.810;8.818;2023-02-22T03:22:36;5.30;66.70
50548;DHT22;38013;48.810;8.818;2023-02-22T03:25:24;5.30;66.90
50548;DHT22;38013;48.810;8.818;2023-02-22T03:28:01;5.30;67.00
50548;DHT22;38013;48.810;8.818;2023-02-22T03:30:43;5.40;67.00
50548;DHT22;38013;48.810;8.818;2023-02-22T03:33:17;5.40;67.70
50548;DHT22;38013;48.810;8.818;2023-02-22T03:35:57;5.30;67.30
50548;DHT22;38013;48.810;8.818;2023-02-22T03:38:28;5.30;67.60
50548;DHT22;38013;48.810;8.818;2023-02-22T03:41:00;5.30;67.20
50548;DHT22;38013;48.810;8.818;2023-02-22T03:43:45;5.30;67.30
50548;DHT22;38013;48.810;8.818;2023-02-22T03:46:16;5.30;68.00
50548;DHT22;38013;48.810;8.818;2023-02-22T03:48:52;5.40;67.10
50548;DHT22;38013;48.810;8.818;2023-02-22T03:51:22;5.40;67.40
50548;DHT22;38013;48.810;8.818;2023-02-22T03:53:55;5.30;67.00
50548;DHT22;38013;48.810;8.818;2023-02-22T03:56:30;5.30;67.00
50548;DHT22;38013;48.810;8.818;2023-02-22T03:59:04;5.30;67.10
50548;DHT22;38013;48.810;8.818;2023-02-22T04:01:33;5.30;67.20
50548;DHT22;38013;48.810;8.818;2023-02-22T04:04:01;5.30;67.10
50548;DHT22;38013;48.810;8.818;2023-02-22T04:06:29;5.30;67.20
50548;DHT22;38013;48.810;8.818;2023-02-22T04:08:58;5.30;67.20
50548;DHT22;38013;48.810;8.818;2023-02-22T04:11:25;5.30;67.20
50548;DHT22;38013;48.810;8.818;2023-02-22T04:13:53;5.30;67.30
50548;DHT22;38013;48.810;8.818;2023-02-22T04:16:20;5.30;67.40
50548;DHT22;38013;48.810;8.818;2023-02-22T04:18:48;5.30;67.50
50548;DHT22;38013;48.810;8.818;2023-02-22T04:21:17;5.30;67.50
50548;DHT22;38013;48.810;8.818;2023-02-22T04:23:47;5.30;67.60
50548;DHT22;38013;48.810;8.818;2023-02-22T04:26:14;5.30;67.70
50548;DHT22;38013;48.810;8.818;2023-02-22T04:28:44;5.20;67.70
50548;DHT22;38013;48.810;8.818;2023-02-22T04:31:17;5.30;67.80
50548;DHT22;38013;48.810;8.818;2023-02-22T04:33:44;5.30;67.80
50548;DHT22;38013;48.810;8.818;2023-02-22T04:36:15;5.30;67.60
50548;DHT22;38013;48.810;8.818;2023-02-22T04:38:43;5.30;67.30
50548;DHT22;38013;48.810;8.818;2023-02-22T04:41:11;5.30;67.00
50548;DHT22;38013;48.810;8.818;2023-02-22T04:43:38;5.20;66.90
50548;DHT22;38013;48.810;8.818;2023-02-22T04:46:17;5.30;67.10
50548;DHT22;38013;48.810;8.818;2023-02-22T04:48:45;5.30;67.20
50548;DHT22;38013;48.810;8.818;2023-02-22T04:51:14;5.30;67.30
50548;DHT22;38013;48.810;8.818;2023-02-22T04:53:54;5.30;67.30
50548;DHT22;38013;48.810;8.818;2023-02-22T04:56:22;5.30;67.20
50548;DHT22;38013;48.810;8.818;2023-02-22T04:58:49;5.30;67.20
50548;DHT22;38013;48.810;8.818;2023-02-22T05:01:16;5.20;67.30
50548;DHT22;38013;48.810;8.818;2023-02-22T05:03:45;5.20;67.30
50548;DHT22;38013;48.810;8.818;2023-02-22T05:06:12;5.20;67.40
50548;DHT22;38013;48.810;8.818;2023-02-22T05:08:39;5.20;67.50
50548;DHT22;38013;48.810;8.818;2023-02-22T05:11:05;5.20;67.60
50548;DHT22;38013;48.810;8.818;2023-02-22T05:13:32;5.20;67.70
50548;DHT22;38013;48.810;8.818;2023-02-22T05:15:59;5.20;67.70
50548;DHT22;38013;48.810;8.818;2023-02-22T05:18:26;5.10;67.70
50548;DHT22;38013;48.810;8.818;2023-02-22T05:20:53;5.10;67.80
50548;DHT22;38013;48.810;8.818;2023-02-22T05:23:20;5.10;67.80
50548;DHT22;38013;48.810;8.818;2023-02-22T05:25:47;5.10;67.80
50548;DHT22;38013;48.810;8.818;2023-02-22T05:28:14;5.10;67.80
50548;DHT22;38013;48.810;8.818;2023-02-22T05:30:41;5.10;67.90
50548;DHT22;38013;48.810;8.818;2023-02-22T05:33:09;5.10;68.00
50548;DHT22;38013;48.810;8.818;2023-02-22T05:35:36;5.00;68.00
50548;DHT22;38013;48.810;8.818;2023-02-22T05:38:03;5.00;68.00
50548;DHT22;38013;48.810;8.818;2023-02-22T05:40:31;5.00;68.20
50548;DHT22;38013;48.810;8.818;2023-02-22T05:42:58;5.00;68.20
50548;DHT22;38013;48.810;8.818;2023-02-22T05:45:26;5.00;68.20
50548;DHT22;38013;48.810;8.818;2023-02-22T05:47:54;5.00;68.20
50548;DHT22;38013;48.810;8.818;2023-02-22T05:50:22;5.00;68.20
50548;DHT22;38013;48.810;8.818;2023-02-22T05:52:50;5.00;68.20
50548;DHT22;38013;48.810;8.818;2023-02-22T05:55:21;5.00;68.20
50548;DHT22;38013;48.810;8.818;2023-02-22T05:57:50;5.00;68.30
50548;DHT22;38013;48.810;8.818;2023-02-22T06:00:19;5.00;68.30
50548;DHT22;38013;48.810;8.818;2023-02-22T06:05:25;5.00;68.70
50548;DHT22;38013;48.810;8.818;2023-02-22T06:07:53;5.00;68.30
50548;DHT22;38013;48.810;8.818;2023-02-22T06:10:20;5.00;68.40
50548;DHT22;38013;48.810;8.818;2023-02-22T06:12:48;5.00;68.30
50548;DHT22;38013;48.810;8.818;2023-02-22T06:15:17;5.00;68.30
50548;DHT22;38013;48.810;8.818;2023-02-22T06:17:45;5.00;68.40
50548;DHT22;38013;48.810;8.818;2023-02-22T06:20:14;5.00;68.30
50548;DHT22;38013;48.810;8.818;2023-02-22T06:22:42;5.00;68.30
50548;DHT22;38013;48.810;8.818;2023-02-22T06:25:14;5.10;68.40
50548;DHT22;38013;48.810;8.818;2023-02-22T06:27:41;5.10;68.40
50548;DHT22;38013;48.810;8.818;2023-02-22T06:30:11;5.00;68.00
50548;DHT22;38013;48.810;8.818;2023-02-22T06:32:39;5.10;68.10
50548;DHT22;38013;48.810;8.818;2023-02-22T06:35:06;5.00;68.10
50548;DHT22;38013;48.810;8.818;2023-02-22T06:37:33;5.00;68.10
50548;DHT22;38013;48.810;8.818;2023-02-22T06:40:00;5.00;68.10
50548;DHT22;38013;48.810;8.818;2023-02-22T06:42:31;5.00;68.20
50548;DHT22;38013;48.810;8.818;2023-02-22T06:44:58;5.00;68.30
50548;DHT22;38013;48.810;8.818;2023-02-22T06:47:25;5.00;68.40
50548;DHT22;38013;48.810;8.818;2023-02-22T06:49:56;4.90;68.50
50548;DHT22;38013;48.810;8.818;2023-02-22T06:52:23;5.00;68.90
50548;DHT22;38013;48.810;8.818;2023-02-22T06:54:51;5.00;68.70
50548;DHT22;38013;48.810;8.818;2023-02-22T06:57:18;5.00;68.80
50548;DHT22;38013;48.810;8.818;2023-02-22T06:59:44;5.10;68.80
50548;DHT22;38013;48.810;8.818;2023-02-22T07:02:12;5.10;68.90
50548;DHT22;38013;48.810;8.818;2023-02-22T07:04:39;5.10;68.80
50548;DHT22;38013;48.810;8.818;2023-02-22T07:07:09;5.20;68.60
50548;DHT22;38013;48.810;8.818;2023-02-22T07:09:36;5.20;68.60
50548;DHT22;38013;48.810;8.818;2023-02-22T07:12:03;5.30;68.50
50548;DHT22;38013;48.810;8.818;2023-02-22T07:14:30;5.30;68.60
50548;DHT22;38013;48.810;8.818;2023-02-22T07:16:56;5.30;68.80
50548;DHT22;38013;48.810;8.818;2023-02-22T07:19:23;5.30;68.80
50548;DHT22;38013;48.810;8.818;2023-02-22T07:21:50;5.40;68.90
50548;DHT22;38013;48.810;8.818;2023-02-22T07:24:25;5.40;69.00
50548;DHT22;38013;48.810;8.818;2023-02-22T07:26:54;5.50;69.20
50548;DHT22;38013;48.810;8.818;2023-02-22T07:29:21;5.50;69.20
50548;DHT22;38013;48.810;8.818;2023-02-22T07:31:48;5.60;69.30
50548;DHT22;38013;48.810;8.818;2023-02-22T07:34:15;5.60;69.30
50548;DHT22;38013;48.810;8.818;2023-02-22T07:36:42;5.70;69.20
50548;DHT22;38013;48.810;8.818;2023-02-22T07:39:09;5.70;69.20
50548;DHT22;38013;48.810;8.818;2023-02-22T07:41:36;5.80;69.20
50548;DHT22;38013;48.810;8.818;2023-02-22T07:44:13;5.90;69.10
50548;DHT22;38013;48.810;8.818;2023-02-22T07:46:39;5.90;68.90
50548;DHT22;38013;48.810;8.818;2023-02-22T07:49:06;6.00;68.90
50548;DHT22;38013;48.810;8.818;2023-02-22T07:51:33;6.00;68.80
50548;DHT22;38013;48.810;8.818;2023-02-22T07:54:00;6.10;68.70
50548;DHT22;38013;48.810;8.818;2023-02-22T07:56:27;6.10;68.60
50548;DHT22;38013;48.810;8.818;2023-02-22T07:58:54;6.20;68.70
50548;DHT22;38013;48.810;8.818;2023-02-22T08:01:20;6.30;68.90
50548;DHT22;38013;48.810;8.818;2023-02-22T08:03:47;6.30;69.00
50548;DHT22;38013;48.810;8.818;2023-02-22T08:06:14;6.40;69.20
50548;DHT22;38013;48.810;8.818;2023-02-22T08:08:41;6.50;69.30
50548;DHT22;38013;48.810;8.818;2023-02-22T08:11:08;6.50;69.40
50548;DHT22;38013;48.810;8.818;2023-02-22T08:13:35;6.60;69.50
50548;DHT22;38013;48.810;8.818;2023-02-22T08:16:04;6.70;69.60
50548;DHT22;38013;48.810;8.818;2023-02-22T08:18:31;6.80;69.40
50548;DHT22;38013;48.810;8.818;2023-02-22T08:20:58;6.90;69.40
50548;DHT22;38013;48.810;8.818;2023-02-22T08:23:25;7.00;69.40
50548;DHT22;38013;48.810;8.818;2023-02-22T08:25:52;7.10;69.40
50548;DHT22;38013;48.810;8.818;2023-02-22T08:28:22;7.20;69.40
50548;DHT22;38013;48.810;8.818;2023-02-22T08:30:51;7.30;69.40
50548;DHT22;38013;48.810;8.818;2023-02-22T08:33:18;7.40;69.20
50548;DHT22;38013;48.810;8.818;2023-02-22T08:35:47;7.50;69.20
50548;DHT22;38013;48.810;8.818;2023-02-22T08:38:26;7.60;69.20
50548;DHT22;38013;48.810;8.818;2023-02-22T08:40:55;7.70;69.10
50548;DHT22;38013;48.810;8.818;2023-02-22T08:43:23;7.90;69.20
50548;DHT22;38013;48.810;8.818;2023-02-22T08:45:50;8.00;69.20
50548;DHT22;38013;48.810;8.818;2023-02-22T08:48:18;8.10;69.10
50548;DHT22;38013;48.810;8.818;2023-02-22T08:50:45;8.30;69.00
50548;DHT22;38013;48.810;8.818;2023-02-22T08:53:13;8.40;68.90
50548;DHT22;38013;48.810;8.818;2023-02-22T08:55:42;8.50;68.90
50548;DHT22;38013;48.810;8.818;2023-02-22T08:58:09;8.60;68.80
50548;DHT22;38013;48.810;8.818;2023-02-22T09:00:38;8.80;68.80
50548;DHT22;38013;48.810;8.818;2023-02-22T09:03:08;8.90;68.70
50548;DHT22;38013;48.810;8.818;2023-02-22T09:05:37;9.10;68.60
50548;DHT22;38013;48.810;8.818;2023-02-22T09:08:04;9.20;68.50
50548;DHT22;38013;48.810;8.818;2023-02-22T09:10:33;9.30;68.50
50548;DHT22;38013;48.810;8.818;2023-02-22T09:13:00;9.50;68.60
50548;DHT22;38013;48.810;8.818;2023-02-22T09:15:28;9.60;68.60
50548;DHT22;38013;48.810;8.818;2023-02-22T09:17:55;9.80;68.50
50548;DHT22;38013;48.810;8.818;2023-02-22T09:20:26;9.90;68.40
50548;DHT22;38013;48.810;8.818;2023-02-22T09:22:54;10.10;68.30
50548;DHT22;38013;48.810;8.818;2023-02-22T09:25:22;10.20;68.00
50548;DHT22;38013;48.810;8.818;2023-02-22T09:27:50;10.40;67.90
50548;DHT22;38013;48.810;8.818;2023-02-22T09:30:27;10.60;67.70
50548;DHT22;38013;48.810;8.818;2023-02-22T09:33:04;10.70;67.50
50548;DHT22;38013;48.810;8.818;2023-02-22T09:35:32;10.80;67.20
50548;DHT22;38013;48.810;8.818;2023-02-22T09:38:03;11.00;67.10
50548;DHT22;38013;48.810;8.818;2023-02-22T09:40:36;11.20;66.90
50548;DHT22;38013;48.810;8.818;2023-02-22T09:46:23;11.50;66.70
50548;DHT22;38013;48.810;8.818;2023-02-22T09:52:29;11.80;66.30
50548;DHT22;38013;48.810;8.818;2023-02-22T09:57:55;12.20;66.00
50548;DHT22;38013;48.810;8.818;2023-02-22T10:00:29;12.40;65.80
50548;DHT22;38013;48.810;8.818;2023-02-22T10:03:19;12.50;65.50
50548;DHT22;38013;48.810;8.818;2023-02-22T10:06:05;12.70;65.40
50548;DHT22;38013;48.810;8.818;2023-02-22T10:08:37;12.90;65.40
50548;DHT22;38013;48.810;8.818;2023-02-22T10:11:31;13.10;65.10
50548;DHT22;38013;48.810;8.818;2023-02-22T10:22:54;14.00;63.40
50548;DHT22;38013;48.810;8.818;2023-02-22T10:25:27;14.20;61.60
50548;DHT22;38013;48.810;8.818;2023-02-22T10:28:14;14.40;61.70
50548;DHT22;38013;48.810;8.818;2023-02-22T10:30:53;14.60;60.50
50548;DHT22;38013;48.810;8.818;2023-02-22T10:33:35;14.70;60.00
50548;DHT22;38013;48.810;8.818;2023-02-22T10:36:19;14.80;59.20
50548;DHT22;38013;48.810;8.818;2023-02-22T10:39:03;14.90;58.50
50548;DHT22;38013;48.810;8.818;2023-02-22T10:41:44;15.10;58.10
50548;DHT22;38013;48.810;8.818;2023-02-22T10:44:15;15.10;58.00
50548;DHT22;38013;48.810;8.818;2023-02-22T10:46:43;15.20;58.40
50548;DHT22;38013;48.810;8.818;2023-02-22T10:49:14;15.20;57.80
50548;DHT22;38013;48.810;8.818;2023-02-22T10:51:58;15.40;57.70
50548;DHT22;38013;48.810;8.818;2023-02-22T10:54:38;15.50;57.80
50548;DHT22;38013;48.810;8.818;2023-02-22T10:57:09;15.50;57.00
50548;DHT22;38013;48.810;8.818;2023-02-22T10:59:39;15.70;57.10
50548;DHT22;38013;48.810;8.818;2023-02-22T11:02:20;15.80;56.60
50548;DHT22;38013;48.810;8.818;2023-02-22T11:04:58;15.90;55.70
50548;DHT22;38013;48.810;8.818;2023-02-22T11:07:29;16.00;57.00
50548;DHT22;38013;48.810;8.818;2023-02-22T11:09:59;16.10;56.80
50548;DHT22;38013;48.810;8.818;2023-02-22T11:12:38;16.20;57.00
50548;DHT22;38013;48.810;8.818;2023-02-22T11:15:26;16.40;56.50
50548;DHT22;38013;48.810;8.818;2023-02-22T11:17:56;16.50;56.30
50548;DHT22;38013;48.810;8.818;2023-02-22T11:20:27;16.70;56.50
50548;DHT22;38013;48.810;8.818;2023-02-22T11:23:01;16.80;55.90
50548;DHT22;38013;48.810;8.818;2023-02-22T11:25:35;17.00;55.60
50548;DHT22;38013;48.810;8.818;2023-02-22T11:28:16;17.10;54.70
50548;DHT22;38013;48.810;8.818;2023-02-22T11:31:07;17.30;54.00
50548;DHT22;38013;48.810;8.818;2023-02-22T11:33:36;17.40;54.80
50548;DHT22;38013;48.810;8.818;2023-02-22T11:36:05;17.50;54.80
50548;DHT22;38013;48.810;8.818;2023-02-22T11:38:37;17.70;54.70
50548;DHT22;38013;48.810;8.818;2023-02-22T11:43:31;17.90;54.10
50548;DHT22;38013;48.810;8.818;2023-02-22T11:46:17;18.00;53.80
50548;DHT22;38013;48.810;8.818;2023-02-22T11:49:14;18.10;52.60
50548;DHT22;38013;48.810;8.818;2023-02-22T12:03:48;18.50;52.00
50548;DHT22;38013;48.810;8.818;2023-02-22T12:06:39;18.70;52.30
50548;DHT22;38013;48.810;8.818;2023-02-22T12:09:31;18.70;51.80
50548;DHT22;38013;48.810;8.818;2023-02-22T12:15:11;18.90;50.80
50548;DHT22;38013;48.810;8.818;2023-02-22T12:20:54;19.20;51.70
50548;DHT22;38013;48.810;8.818;2023-02-22T12:26:39;19.40;49.30
50548;DHT22;38013;48.810;8.818;2023-02-22T12:34:58;19.70;49.20
50548;DHT22;38013;48.810;8.818;2023-02-22T12:37:53;19.90;49.50
50548;DHT22;38013;48.810;8.818;2023-02-22T12:40:37;19.90;49.20
50548;DHT22;38013;48.810;8.818;2023-02-22T12:43:23;20.10;48.50
50548;DHT22;38013;48.810;8.818;2023-02-22T13:01:17;21.60;47.00
50548;DHT22;38013;48.810;8.818;2023-02-22T13:03:47;21.70;46.50
50548;DHT22;38013;48.810;8.818;2023-02-22T13:07:00;21.80;46.30
50548;DHT22;38013;48.810;8.818;2023-02-22T13:15:31;21.50;45.10
50548;DHT22;38013;48.810;8.818;2023-02-22T13:18:37;21.30;45.00
50548;DHT22;38013;48.810;8.818;2023-02-22T13:23:52;21.30;45.90
50548;DHT22;38013;48.810;8.818;2023-02-22T13:26:52;21.20;45.10
50548;DHT22;38013;48.810;8.818;2023-02-22T13:29:35;21.10;45.50
50548;DHT22;38013;48.810;8.818;2023-02-22T13:32:22;20.90;45.40
50548;DHT22;38013;48.810;8.818;2023-02-22T13:35:37;20.80;45.50
50548;DHT22;38013;48.810;8.818;2023-02-22T13:53:24;19.50;46.20
50548;DHT22;38013;48.810;8.818;2023-02-22T13:55:56;19.30;47.10
50548;DHT22;38013;48.810;8.818;2023-02-22T13:58:24;19.20;47.50
50548;DHT22;38013;48.810;8.818;2023-02-22T14:00:54;19.10;48.00
50548;DHT22;38013;48.810;8.818;2023-02-22T14:03:33;19.10;48.40
50548;DHT22;38013;48.810;8.818;2023-02-22T14:06:04;19.10;48.30
50548;DHT22;38013;48.810;8.818;2023-02-22T14:14:10;19.20;48.30
50548;DHT22;38013;48.810;8.818;2023-02-22T14:16:40;19.10;47.90
50548;DHT22;38013;48.810;8.818;2023-02-22T14:19:16;19.10;48.00
50548;DHT22;38013;48.810;8.818;2023-02-22T14:21:59;19.00;47.80
50548;DHT22;38013;48.810;8.818;2023-02-22T14:24:48;18.90;47.80
50548;DHT22;38013;48.810;8.818;2023-02-22T14:27:16;18.80;48.10
50548;DHT22;38013;48.810;8.818;2023-02-22T14:29:55;18.80;48.20
50548;DHT22;38013;48.810;8.818;2023-02-22T14:32:32;18.70;48.20
50548;DHT22;38013;48.810;8.818;2023-02-22T14:35:12;18.60;48.50
50548;DHT22;38013;48.810;8.818;2023-02-22T14:37:56;18.50;48.70
50548;DHT22;38013;48.810;8.818;2023-02-22T14:40:28;18.40;48.90
50548;DHT22;38013;48.810;8.818;2023-02-22T14:45:39;18.30;49.00
50548;DHT22;38013;48.810;8.818;2023-02-22T14:48:31;18.20;49.00
50548;DHT22;38013;48.810;8.818;2023-02-22T14:51:14;18.10;50.00
50548;DHT22;38013;48.810;8.818;2023-02-22T14:54:23;18.10;49.50
50548;DHT22;38013;48.810;8.818;2023-02-22T14:57:18;18.10;49.40
50548;DHT22;38013;48.810;8.818;2023-02-22T15:00:03;18.00;49.70
50548;DHT22;38013;48.810;8.818;2023-02-22T15:02:46;18.00;49.60
50548;DHT22;38013;48.810;8.818;2023-02-22T15:05:17;17.90;49.70
50548;DHT22;38013;48.810;8.818;2023-02-22T15:07:55;17.90;49.80
50548;DHT22;38013;48.810;8.818;2023-02-22T15:10:30;17.80;49.80
50548;DHT22;38013;48.810;8.818;2023-02-22T15:13:21;17.90;49.70
50548;DHT22;38013;48.810;8.818;2023-02-22T15:16:03;17.90;49.00
50548;DHT22;38013;48.810;8.818;2023-02-22T15:18:39;17.90;48.50
50548;DHT22;38013;48.810;8.818;2023-02-22T15:21:16;18.00;48.30
50548;DHT22;38013;48.810;8.818;2023-02-22T15:24:05;17.90;47.60
50548;DHT22;38013;48.810;8.818;2023-02-22T15:26:36;17.90;47.80
50548;DHT22;38013;48.810;8.818;2023-02-22T15:29:18;17.80;48.10
50548;DHT22;38013;48.810;8.818;2023-02-22T15:31:49;17.70;48.10
50548;DHT22;38013;48.810;8.818;2023-02-22T15:34:26;17.60;48.40
50548;DHT22;38013;48.810;8.818;2023-02-22T15:36:56;17.60;48.00
50548;DHT22;38013;48.810;8.818;2023-02-22T15:39:33;17.50;48.30
50548;DHT22;38013;48.810;8.818;2023-02-22T15:42:10;17.50;48.40
50548;DHT22;38013;48.810;8.818;2023-02-22T15:44:48;17.40;48.40
50548;DHT22;38013;48.810;8.818;2023-02-22T15:47:22;17.30;48.50
50548;DHT22;38013;48.810;8.818;2023-02-22T15:50:33;17.10;48.40
50548;DHT22;38013;48.810;8.818;2023-02-22T15:53:05;17.00;48.60
50548;DHT22;38013;48.810;8.818;2023-02-22T15:55:42;16.90;49.20
50548;DHT22;38013;48.810;8.818;2023-02-22T15:58:19;16.70;49.40
50548;DHT22;38013;48.810;8.818;2023-02-22T16:00:59;16.60;49.70
50548;DHT22;38013;48.810;8.818;2023-02-22T16:03:39;16.50;50.20
50548;DHT22;38013;48.810;8.818;2023-02-22T16:06:14;16.40;50.50
50548;DHT22;38013;48.810;8.818;2023-02-22T16:08:51;16.30;50.40
50548;DHT22;38013;48.810;8.818;2023-02-22T16:11:36;16.20;50.80
50548;DHT22;38013;48.810;8.818;2023-02-22T16:19:54;15.80;51.40
50548;DHT22;38013;48.810;8.818;2023-02-22T16:22:34;15.70;51.40
50548;DHT22;38013;48.810;8.818;2023-02-22T16:27:48;15.40;52.20
50548;DHT22;38013;48.810;8.818;2023-02-22T16:30:30;15.30;52.00
50548;DHT22;38013;48.810;8.818;2023-02-22T16:33:01;15.20;52.40
50548;DHT22;38013;48.810;8.818;2023-02-22T16:35:31;15.10;52.40
50548;DHT22;38013;48.810;8.818;2023-02-22T16:38:03;15.10;52.40
50548;DHT22;38013;48.810;8.818;2023-02-22T16:40:44;15.00;52.90
50548;DHT22;38013;48.810;8.818;2023-02-22T16:43:19;15.00;53.70
50548;DHT22;38013;48.810;8.818;2023-02-22T16:45:54;14.90;53.30
50548;DHT22;38013;48.810;8.818;2023-02-22T16:48:26;14.80;53.30
50548;DHT22;38013;48.810;8.818;2023-02-22T16:50:59;14.70;53.80
50548;DHT22;38013;48.810;8.818;2023-02-22T16:53:30;14.60;53.90
50548;DHT22;38013;48.810;8.818;2023-02-22T16:56:04;14.60;54.00
50548;DHT22;38013;48.810;8.818;2023-02-22T16:58:33;14.50;54.20
50548;DHT22;38013;48.810;8.818;2023-02-22T17:01:02;14.40;54.30
50548;DHT22;38013;48.810;8.818;2023-02-22T17:03:29;14.30;54.30
50548;DHT22;38013;48.810;8.818;2023-02-22T17:05:56;14.20;54.50
50548;DHT22;38013;48.810;8.818;2023-02-22T17:08:23;14.10;54.70
50548;DHT22;38013;48.810;8.818;2023-02-22T17:10:50;14.00;54.90
50548;DHT22;38013;48.810;8.818;2023-02-22T17:13:23;14.00;55.20
50548;DHT22;38013;48.810;8.818;2023-02-22T17:15:53;13.80;55.30
50548;DHT22;38013;48.810;8.818;2023-02-22T17:18:22;13.70;55.40
50548;DHT22;38013;48.810;8.818;2023-02-22T17:20:52;13.70;55.60
50548;DHT22;38013;48.810;8.818;2023-02-22T17:23:21;13.60;55.70
50548;DHT22;38013;48.810;8.818;2023-02-22T17:25:53;13.50;56.10
50548;DHT22;38013;48.810;8.818;2023-02-22T17:28:27;13.50;56.20
50548;DHT22;38013;48.810;8.818;2023-02-22T17:30:57;13.40;56.10
50548;DHT22;38013;48.810;8.818;2023-02-22T17:33:30;13.40;56.80
50548;DHT22;38013;48.810;8.818;2023-02-22T17:35:59;13.30;56.50
50548;DHT22;38013;48.810;8.818;2023-02-22T17:38:28;13.30;56.60
50548;DHT22;38013;48.810;8.818;2023-02-22T17:40:57;13.30;56.70
50548;DHT22;38013;48.810;8.818;2023-02-22T17:43:25;13.20;56.80
50548;DHT22;38013;48.810;8.818;2023-02-22T17:45:56;13.20;56.80
50548;DHT22;38013;48.810;8.818;2023-02-22T17:48:23;13.10;57.20
50548;DHT22;38013;48.810;8.818;2023-02-22T17:50:51;13.10;57.30
50548;DHT22;38013;48.810;8.818;2023-02-22T17:53:19;13.10;57.30
50548;DHT22;38013;48.810;8.818;2023-02-22T17:55:50;13.00;57.40
50548;DHT22;38013;48.810;8.818;2023-02-22T17:58:17;13.00;57.40
50548;DHT22;38013;48.810;8.818;2023-02-22T18:00:46;12.90;58.10
50548;DHT22;38013;48.810;8.818;2023-02-22T18:03:19;12.90;58.40
50548;DHT22;38013;48.810;8.818;2023-02-22T18:05:53;12.90;57.80
50548;DHT22;38013;48.810;8.818;2023-02-22T18:08:24;12.90;57.90
50548;DHT22;38013;48.810;8.818;2023-02-22T18:10:53;12.80;57.90
50548;DHT22;38013;48.810;8.818;2023-02-22T18:13:25;12.80;58.10
50548;DHT22;38013;48.810;8.818;2023-02-22T18:15:55;12.70;58.10
50548;DHT22;38013;48.810;8.818;2023-02-22T18:18:25;12.70;58.30
50548;DHT22;38013;48.810;8.818;2023-02-22T18:20:52;12.60;58.20
50548;DHT22;38013;48.810;8.818;2023-02-22T18:23:27;12.60;58.30
50548;DHT22;38013;48.810;8.818;2023-02-22T18:25:57;12.50;58.50
50548;DHT22;38013;48.810;8.818;2023-02-22T18:28:37;12.50;58.60
50548;DHT22;38013;48.810;8.818;2023-02-22T18:31:07;12.40;58.70
50548;DHT22;38013;48.810;8.818;2023-02-22T18:33:35;12.40;58.90